sensor_id;sensor_type;location;lat;lon;timestamp;P1;durP1;ratioP1;P2;durP2;ratioP2
16472;SDS011;8347;52.486;13.432;2023-10-09T00:00:33;5.30;;;3.17;;
16472;SDS011;8347;52.486;13.432;2023-10-09T00:03:23;4.25;;;2.88;;
16472;SDS011;8347;52.486;13.432;2023-10-09T00:06:10;3.58;;;2.30;;
16472;SDS011;8347;52.486;13.432;2023-10-09T00:08:59;3.75;;;3.13;;
16472;SDS011;8347;52.486;13.432;2023-10-09T00:11:57;5.38;;;2.78;;
16472;SDS011;8347;52.486;13.432;2023-10-09T00:14:45;4.35;;;3.28;;
16472;SDS011;8347;52.486;13.432;2023-10-09T00:17:34;6.07;;;2.90;;
16472;SDS011;8347;52.486;13.432;2023-10-09T00:20:20;7.88;;;3.08;;
16472;SDS011;8347;52.486;13.432;2023-10-09T00:23:10;4.55;;;3.05;;
16472;SDS011;8347;52.486;13.432;2023-10-09T00:26:01;4.47;;;2.67;;
16472;SDS011;8347;52.486;13.432;2023-10-09T00:29:06;5.70;;;2.83;;
16472;SDS011;8347;52.486;13.432;2023-10-09T00:31:52;6.45;;;2.80;;
16472;SDS011;8347;52.486;13.432;2023-10-09T00:34:51;4.22;;;3.08;;
16472;SDS011;8347;52.486;13.432;2023-10-09T00:37:38;4.90;;;3.25;;
16472;SDS011;8347;52.486;13.432;2023-10-09T00:40:29;5.53;;;3.17;;
16472;SDS011;8347;52.486;13.432;2023-10-09T00:43:17;4.85;;;3.10;;
16472;SDS011;8347;52.486;13.432;2023-10-09T00:46:06;5.28;;;3.55;;
16472;SDS011;8347;52.486;13.432;2023-10-09T00:49:05;6.20;;;3.70;;
16472;SDS011;8347;52.486;13.432;2023-10-09T00:51:55;4.22;;;3.03;;
16472;SDS011;8347;52.486;13.432;2023-10-09T00:54:42;5.50;;;3.28;;
16472;SDS011;8347;52.486;13.432;2023-10-09T00:57:30;4.35;;;2.78;;
16472;SDS011;8347;52.486;13.432;2023-10-09T01:00:20;4.45;;;3.55;;
16472;SDS011;8347;52.486;13.432;2023-10-09T01:03:30;6.63;;;3.22;;
16472;SDS011;8347;52.486;13.432;2023-10-09T01:06:19;5.28;;;3.55;;
16472;SDS011;8347;52.486;13.432;2023-10-09T01:09:14;5.15;;;3.35;;
16472;SDS011;8347;52.486;13.432;2023-10-09T01:12:06;4.38;;;3.67;;
16472;SDS011;8347;52.486;13.432;2023-10-09T01:14:54;5.13;;;3.22;;
16472;SDS011;8347;52.486;13.432;2023-10-09T01:17:41;6.45;;;4.20;;
16472;SDS011;8347;52.486;13.432;2023-10-09T01:20:31;5.38;;;4.10;;
16472;SDS011;8347;52.486;13.432;2023-10-09T01:23:27;5.35;;;4.15;;
16472;SDS011;8347;52.486;13.432;2023-10-09T01:26:15;7.30;;;3.80;;
16472;SDS011;8347;52.486;13.432;2023-10-09T01:29:02;5.57;;;4.18;;
16472;SDS011;8347;52.486;13.432;2023-10-09T01:31:50;6.03;;;4.15;;
16472;SDS011;8347;52.486;13.432;2023-10-09T01:34:50;6.95;;;3.80;;
16472;SDS011;8347;52.486;13.432;2023-10-09T01:37:36;11.00;;;4.07;;
16472;SDS011;8347;52.486;13.432;2023-10-09T01:40:23;8.00;;;3.38;;
16472;SDS011;8347;52.486;13.432;2023-10-09T01:43:22;4.72;;;4.05;;
16472;SDS011;8347;52.486;13.432;2023-10-09T01:46:09;5.10;;;3.65;;
16472;SDS011;8347;52.486;13.432;2023-10-09T01:48:56;5.28;;;3.42;;
16472;SDS011;8347;52.486;13.432;2023-10-09T01:51:44;5.85;;;3.33;;
16472;SDS011;8347;52.486;13.432;2023-10-09T01:54:33;6.57;;;3.45;;
16472;SDS011;8347;52.486;13.432;2023-10-09T01:57:22;4.30;;;3.58;;
16472;SDS011;8347;52.486;13.432;2023-10-09T02:00:10;5.32;;;3.05;;
16472;SDS011;8347;52.486;13.432;2023-10-09T02:03:09;3.42;;;2.95;;
16472;SDS011;8347;52.486;13.432;2023-10-09T02:06:09;4.07;;;2.72;;
16472;SDS011;8347;52.486;13.432;2023-10-09T02:09:16;4.38;;;3.15;;
16472;SDS011;8347;52.486;13.432;2023-10-09T02:12:08;5.25;;;3.83;;
16472;SDS011;8347;52.486;13.432;2023-10-09T02:14:54;4.90;;;3.55;;
16472;SDS011;8347;52.486;13.432;2023-10-09T02:17:41;4.90;;;3.38;;
16472;SDS011;8347;52.486;13.432;2023-10-09T02:20:47;5.93;;;3.95;;
16472;SDS011;8347;52.486;13.432;2023-10-09T02:23:45;8.55;;;3.65;;
16472;SDS011;8347;52.486;13.432;2023-10-09T02:26:35;8.35;;;3.50;;
16472;SDS011;8347;52.486;13.432;2023-10-09T02:29:25;5.47;;;3.83;;
16472;SDS011;8347;52.486;13.432;2023-10-09T02:32:13;5.43;;;3.42;;
16472;SDS011;8347;52.486;13.432;2023-10-09T02:35:02;7.95;;;3.88;;
16472;SDS011;8347;52.486;13.432;2023-10-09T02:38:05;5.53;;;3.40;;
16472;SDS011;8347;52.486;13.432;2023-10-09T02:40:52;6.82;;;3.90;;
16472;SDS011;8347;52.486;13.432;2023-10-09T02:43:48;7.95;;;4.28;;
16472;SDS011;8347;52.486;13.432;2023-10-09T02:46:41;4.70;;;3.53;;
16472;SDS011;8347;52.486;13.432;2023-10-09T02:49:30;7.80;;;4.05;;
16472;SDS011;8347;52.486;13.432;2023-10-09T02:52:17;6.55;;;4.50;;
16472;SDS011;8347;52.486;13.432;2023-10-09T02:55:11;6.10;;;4.15;;
16472;SDS011;8347;52.486;13.432;2023-10-09T02:58:08;6.57;;;3.70;;
16472;SDS011;8347;52.486;13.432;2023-10-09T03:01:09;6.85;;;3.90;;
16472;SDS011;8347;52.486;13.432;2023-10-09T03:03:56;5.80;;;3.90;;
16472;SDS011;8347;52.486;13.432;2023-10-09T03:06:45;8.15;;;4.65;;
16472;SDS011;8347;52.486;13.432;2023-10-09T03:09:36;6.93;;;4.38;;
16472;SDS011;8347;52.486;13.432;2023-10-09T03:12:24;6.05;;;4.28;;
16472;SDS011;8347;52.486;13.432;2023-10-09T03:15:13;7.97;;;4.60;;
16472;SDS011;8347;52.486;13.432;2023-10-09T03:17:59;7.38;;;4.32;;
16472;SDS011;8347;52.486;13.432;2023-10-09T03:20:46;9.07;;;3.92;;
16472;SDS011;8347;52.486;13.432;2023-10-09T03:23:33;6.47;;;4.18;;
16472;SDS011;8347;52.486;13.432;2023-10-09T03:26:20;7.03;;;3.75;;
16472;SDS011;8347;52.486;13.432;2023-10-09T03:29:06;8.20;;;4.18;;
16472;SDS011;8347;52.486;13.432;2023-10-09T03:31:55;6.15;;;4.20;;
16472;SDS011;8347;52.486;13.432;2023-10-09T03:34:42;5.82;;;4.00;;
16472;SDS011;8347;52.486;13.432;2023-10-09T03:37:29;9.95;;;4.35;;
16472;SDS011;8347;52.486;13.432;2023-10-09T03:40:22;7.93;;;4.30;;
16472;SDS011;8347;52.486;13.432;2023-10-09T03:43:11;5.63;;;4.40;;
16472;SDS011;8347;52.486;13.432;2023-10-09T03:45:59;6.47;;;4.82;;
16472;SDS011;8347;52.486;13.432;2023-10-09T03:48:49;7.10;;;4.50;;
16472;SDS011;8347;52.486;13.432;2023-10-09T03:51:42;6.50;;;4.50;;
16472;SDS011;8347;52.486;13.432;2023-10-09T03:54:31;9.23;;;4.25;;
16472;SDS011;8347;52.486;13.432;2023-10-09T03:57:18;7.05;;;4.03;;
16472;SDS011;8347;52.486;13.432;2023-10-09T04:00:05;8.23;;;4.93;;
16472;SDS011;8347;52.486;13.432;2023-10-09T04:02:57;6.32;;;4.38;;
16472;SDS011;8347;52.486;13.432;2023-10-09T04:05:44;7.88;;;4.20;;
16472;SDS011;8347;52.486;13.432;2023-10-09T04:08:31;5.25;;;3.63;;
16472;SDS011;8347;52.486;13.432;2023-10-09T04:11:20;8.65;;;3.97;;
16472;SDS011;8347;52.486;13.432;2023-10-09T04:14:09;7.35;;;4.82;;
16472;SDS011;8347;52.486;13.432;2023-10-09T04:17:05;10.63;;;4.53;;
16472;SDS011;8347;52.486;13.432;2023-10-09T04:20:11;11.65;;;4.03;;
16472;SDS011;8347;52.486;13.432;2023-10-09T04:23:03;4.82;;;3.83;;
16472;SDS011;8347;52.486;13.432;2023-10-09T04:25:52;6.07;;;3.85;;
16472;SDS011;8347;52.486;13.432;2023-10-09T04:28:39;7.45;;;3.70;;
16472;SDS011;8347;52.486;13.432;2023-10-09T04:31:28;8.13;;;3.88;;
16472;SDS011;8347;52.486;13.432;2023-10-09T04:34:18;6.70;;;4.20;;
16472;SDS011;8347;52.486;13.432;2023-10-09T04:37:07;4.13;;;3.50;;
16472;SDS011;8347;52.486;13.432;2023-10-09T04:40:13;4.82;;;3.83;;
16472;SDS011;8347;52.486;13.432;2023-10-09T04:43:19;9.68;;;4.28;;
16472;SDS011;8347;52.486;13.432;2023-10-09T04:46:08;5.95;;;4.30;;
16472;SDS011;8347;52.486;13.432;2023-10-09T04:48:58;7.10;;;4.13;;
16472;SDS011;8347;52.486;13.432;2023-10-09T04:52:01;7.00;;;3.88;;
16472;SDS011;8347;52.486;13.432;2023-10-09T04:54:54;11.35;;;4.75;;
16472;SDS011;8347;52.486;13.432;2023-10-09T04:57:52;5.25;;;4.35;;
16472;SDS011;8347;52.486;13.432;2023-10-09T05:00:55;6.38;;;3.78;;
16472;SDS011;8347;52.486;13.432;2023-10-09T05:03:44;7.32;;;4.50;;
16472;SDS011;8347;52.486;13.432;2023-10-09T05:06:31;10.00;;;4.70;;
16472;SDS011;8347;52.486;13.432;2023-10-09T05:09:40;9.80;;;4.38;;
16472;SDS011;8347;52.486;13.432;2023-10-09T05:12:41;9.85;;;5.40;;
16472;SDS011;8347;52.486;13.432;2023-10-09T05:15:33;7.50;;;3.50;;
16472;SDS011;8347;52.486;13.432;2023-10-09T05:18:20;9.15;;;4.35;;
16472;SDS011;8347;52.486;13.432;2023-10-09T05:21:13;9.60;;;4.97;;
16472;SDS011;8347;52.486;13.432;2023-10-09T05:24:00;6.68;;;3.60;;
16472;SDS011;8347;52.486;13.432;2023-10-09T05:27:02;5.53;;;3.63;;
16472;SDS011;8347;52.486;13.432;2023-10-09T05:30:03;6.85;;;3.50;;
16472;SDS011;8347;52.486;13.432;2023-10-09T05:33:09;7.30;;;4.43;;
16472;SDS011;8347;52.486;13.432;2023-10-09T05:36:25;5.60;;;3.63;;
16472;SDS011;8347;52.486;13.432;2023-10-09T05:39:11;5.20;;;3.80;;
16472;SDS011;8347;52.486;13.432;2023-10-09T05:42:15;5.15;;;3.70;;
16472;SDS011;8347;52.486;13.432;2023-10-09T05:45:04;5.55;;;3.72;;
16472;SDS011;8347;52.486;13.432;2023-10-09T05:48:03;7.93;;;4.20;;
16472;SDS011;8347;52.486;13.432;2023-10-09T05:50:49;7.78;;;3.58;;
16472;SDS011;8347;52.486;13.432;2023-10-09T05:53:54;4.45;;;3.25;;
16472;SDS011;8347;52.486;13.432;2023-10-09T05:57:01;7.53;;;4.03;;
16472;SDS011;8347;52.486;13.432;2023-10-09T06:00:06;5.00;;;4.03;;
16472;SDS011;8347;52.486;13.432;2023-10-09T06:03:16;5.90;;;3.35;;
16472;SDS011;8347;52.486;13.432;2023-10-09T06:06:05;5.93;;;3.88;;
16472;SDS011;8347;52.486;13.432;2023-10-09T06:08:52;7.03;;;4.95;;
16472;SDS011;8347;52.486;13.432;2023-10-09T06:11:57;6.90;;;3.50;;
16472;SDS011;8347;52.486;13.432;2023-10-09T06:15:03;7.72;;;3.20;;
16472;SDS011;8347;52.486;13.432;2023-10-09T06:18:17;5.40;;;3.78;;
16472;SDS011;8347;52.486;13.432;2023-10-09T06:21:21;6.43;;;4.30;;
16472;SDS011;8347;52.486;13.432;2023-10-09T06:24:26;4.80;;;3.72;;
16472;SDS011;8347;52.486;13.432;2023-10-09T06:27:19;7.13;;;4.90;;
16472;SDS011;8347;52.486;13.432;2023-10-09T06:30:15;5.50;;;3.63;;
16472;SDS011;8347;52.486;13.432;2023-10-09T06:33:04;7.07;;;4.13;;
16472;SDS011;8347;52.486;13.432;2023-10-09T06:36:04;6.38;;;4.13;;
16472;SDS011;8347;52.486;13.432;2023-10-09T06:39:03;8.35;;;4.55;;
16472;SDS011;8347;52.486;13.432;2023-10-09T06:42:08;7.10;;;4.25;;
16472;SDS011;8347;52.486;13.432;2023-10-09T06:45:15;8.13;;;4.10;;
16472;SDS011;8347;52.486;13.432;2023-10-09T06:48:02;5.88;;;4.40;;
16472;SDS011;8347;52.486;13.432;2023-10-09T06:51:14;6.75;;;4.13;;
16472;SDS011;8347;52.486;13.432;2023-10-09T06:54:12;7.95;;;4.72;;
16472;SDS011;8347;52.486;13.432;2023-10-09T06:57:02;6.30;;;4.43;;
16472;SDS011;8347;52.486;13.432;2023-10-09T07:00:04;5.50;;;4.78;;
16472;SDS011;8347;52.486;13.432;2023-10-09T07:03:09;7.28;;;3.38;;
16472;SDS011;8347;52.486;13.432;2023-10-09T07:06:09;6.72;;;4.00;;
16472;SDS011;8347;52.486;13.432;2023-10-09T07:09:15;8.68;;;4.78;;
16472;SDS011;8347;52.486;13.432;2023-10-09T07:12:04;5.43;;;3.80;;
16472;SDS011;8347;52.486;13.432;2023-10-09T07:14:55;6.22;;;3.63;;
16472;SDS011;8347;52.486;13.432;2023-10-09T07:17:41;7.13;;;3.78;;
16472;SDS011;8347;52.486;13.432;2023-10-09T07:20:28;7.03;;;4.28;;
16472;SDS011;8347;52.486;13.432;2023-10-09T07:23:24;6.75;;;4.82;;
16472;SDS011;8347;52.486;13.432;2023-10-09T07:26:14;7.10;;;4.43;;
16472;SDS011;8347;52.486;13.432;2023-10-09T07:29:04;6.63;;;4.47;;
16472;SDS011;8347;52.486;13.432;2023-10-09T07:32:07;6.72;;;3.90;;
16472;SDS011;8347;52.486;13.432;2023-10-09T07:34:58;8.85;;;4.43;;
16472;SDS011;8347;52.486;13.432;2023-10-09T07:37:45;6.53;;;4.35;;
16472;SDS011;8347;52.486;13.432;2023-10-09T07:40:37;7.22;;;4.05;;
16472;SDS011;8347;52.486;13.432;2023-10-09T07:44:02;5.22;;;4.40;;
16472;SDS011;8347;52.486;13.432;2023-10-09T07:47:04;10.63;;;4.95;;
16472;SDS011;8347;52.486;13.432;2023-10-09T07:50:03;8.52;;;4.32;;
16472;SDS011;8347;52.486;13.432;2023-10-09T07:52:49;5.07;;;4.20;;
16472;SDS011;8347;52.486;13.432;2023-10-09T07:55:39;7.10;;;4.50;;
16472;SDS011;8347;52.486;13.432;2023-10-09T07:58:31;10.10;;;5.20;;
16472;SDS011;8347;52.486;13.432;2023-10-09T08:01:31;6.78;;;3.85;;
16472;SDS011;8347;52.486;13.432;2023-10-09T08:04:21;8.85;;;4.70;;
16472;SDS011;8347;52.486;13.432;2023-10-09T08:07:24;7.93;;;4.93;;
16472;SDS011;8347;52.486;13.432;2023-10-09T08:10:19;12.98;;;5.15;;
16472;SDS011;8347;52.486;13.432;2023-10-09T08:13:06;13.18;;;5.57;;
16472;SDS011;8347;52.486;13.432;2023-10-09T08:16:11;11.20;;;5.07;;
16472;SDS011;8347;52.486;13.432;2023-10-09T08:19:06;13.43;;;5.38;;
16472;SDS011;8347;52.486;13.432;2023-10-09T08:22:12;9.48;;;4.90;;
16472;SDS011;8347;52.486;13.432;2023-10-09T08:25:12;7.28;;;4.68;;
16472;SDS011;8347;52.486;13.432;2023-10-09T08:28:15;7.50;;;5.03;;
16472;SDS011;8347;52.486;13.432;2023-10-09T08:31:20;4.78;;;3.90;;
16472;SDS011;8347;52.486;13.432;2023-10-09T08:34:30;5.07;;;4.20;;
16472;SDS011;8347;52.486;13.432;2023-10-09T08:37:34;9.75;;;4.47;;
16472;SDS011;8347;52.486;13.432;2023-10-09T08:40:20;6.55;;;4.60;;
16472;SDS011;8347;52.486;13.432;2023-10-09T08:43:08;6.88;;;4.10;;
16472;SDS011;8347;52.486;13.432;2023-10-09T08:45:57;6.75;;;4.57;;
16472;SDS011;8347;52.486;13.432;2023-10-09T08:48:49;6.45;;;4.30;;
16472;SDS011;8347;52.486;13.432;2023-10-09T08:51:36;6.82;;;4.25;;
16472;SDS011;8347;52.486;13.432;2023-10-09T08:54:23;6.00;;;3.80;;
16472;SDS011;8347;52.486;13.432;2023-10-09T08:57:10;4.50;;;3.70;;
16472;SDS011;8347;52.486;13.432;2023-10-09T08:59:57;7.22;;;5.07;;
16472;SDS011;8347;52.486;13.432;2023-10-09T09:02:43;8.05;;;3.97;;
16472;SDS011;8347;52.486;13.432;2023-10-09T09:05:33;4.43;;;4.03;;
16472;SDS011;8347;52.486;13.432;2023-10-09T09:08:22;6.47;;;4.97;;
16472;SDS011;8347;52.486;13.432;2023-10-09T09:11:11;5.63;;;4.38;;
16472;SDS011;8347;52.486;13.432;2023-10-09T09:14:01;9.60;;;6.47;;
16472;SDS011;8347;52.486;13.432;2023-10-09T09:16:52;10.55;;;5.53;;
16472;SDS011;8347;52.486;13.432;2023-10-09T09:19:38;9.43;;;4.75;;
16472;SDS011;8347;52.486;13.432;2023-10-09T09:22:24;8.63;;;5.47;;
16472;SDS011;8347;52.486;13.432;2023-10-09T09:25:12;6.80;;;5.38;;
16472;SDS011;8347;52.486;13.432;2023-10-09T09:27:58;7.25;;;5.28;;
16472;SDS011;8347;52.486;13.432;2023-10-09T09:30:59;10.13;;;5.10;;
16472;SDS011;8347;52.486;13.432;2023-10-09T09:33:56;6.20;;;4.53;;
16472;SDS011;8347;52.486;13.432;2023-10-09T09:36:51;6.47;;;5.05;;
16472;SDS011;8347;52.486;13.432;2023-10-09T09:39:41;6.10;;;4.93;;
16472;SDS011;8347;52.486;13.432;2023-10-09T09:42:29;8.35;;;4.65;;
16472;SDS011;8347;52.486;13.432;2023-10-09T09:45:18;5.78;;;4.60;;
16472;SDS011;8347;52.486;13.432;2023-10-09T09:48:09;7.10;;;5.00;;
16472;SDS011;8347;52.486;13.432;2023-10-09T09:50:56;7.85;;;5.28;;
16472;SDS011;8347;52.486;13.432;2023-10-09T09:53:43;8.48;;;5.20;;
16472;SDS011;8347;52.486;13.432;2023-10-09T09:56:34;6.10;;;5.05;;
16472;SDS011;8347;52.486;13.432;2023-10-09T09:59:25;6.47;;;5.10;;
16472;SDS011;8347;52.486;13.432;2023-10-09T10:02:18;9.25;;;5.15;;
16472;SDS011;8347;52.486;13.432;2023-10-09T10:05:07;7.10;;;4.82;;
16472;SDS011;8347;52.486;13.432;2023-10-09T10:07:57;9.38;;;4.53;;
16472;SDS011;8347;52.486;13.432;2023-10-09T10:10:45;6.88;;;4.93;;
16472;SDS011;8347;52.486;13.432;2023-10-09T10:22:45;5.97;;;5.25;;
16472;SDS011;8347;52.486;13.432;2023-10-09T10:25:34;6.20;;;5.60;;
16472;SDS011;8347;52.486;13.432;2023-10-09T10:28:22;10.10;;;5.70;;
16472;SDS011;8347;52.486;13.432;2023-10-09T10:31:50;12.73;;;6.15;;
16472;SDS011;8347;52.486;13.432;2023-10-09T10:34:51;6.32;;;5.10;;
16472;SDS011;8347;52.486;13.432;2023-10-09T10:37:52;7.40;;;5.70;;
16472;SDS011;8347;52.486;13.432;2023-10-09T10:40:49;8.07;;;5.75;;
16472;SDS011;8347;52.486;13.432;2023-10-09T10:43:46;9.80;;;5.72;;
16472;SDS011;8347;52.486;13.432;2023-10-09T10:46:33;7.72;;;6.20;;
16472;SDS011;8347;52.486;13.432;2023-10-09T10:49:22;8.35;;;5.75;;
16472;SDS011;8347;52.486;13.432;2023-10-09T10:52:21;8.75;;;5.57;;
16472;SDS011;8347;52.486;13.432;2023-10-09T10:55:09;7.13;;;6.40;;
16472;SDS011;8347;52.486;13.432;2023-10-09T10:58:25;7.63;;;6.20;;
16472;SDS011;8347;52.486;13.432;2023-10-09T11:01:33;6.97;;;6.00;;
16472;SDS011;8347;52.486;13.432;2023-10-09T11:04:49;8.45;;;6.15;;
16472;SDS011;8347;52.486;13.432;2023-10-09T11:07:59;7.97;;;6.47;;
16472;SDS011;8347;52.486;13.432;2023-10-09T11:10:46;8.32;;;5.70;;
16472;SDS011;8347;52.486;13.432;2023-10-09T11:13:35;9.00;;;5.95;;
16472;SDS011;8347;52.486;13.432;2023-10-09T11:16:38;6.35;;;5.32;;
16472;SDS011;8347;52.486;13.432;2023-10-09T11:19:27;6.55;;;5.30;;
16472;SDS011;8347;52.486;13.432;2023-10-09T11:22:14;6.95;;;5.47;;
16472;SDS011;8347;52.486;13.432;2023-10-09T11:25:14;9.20;;;6.05;;
16472;SDS011;8347;52.486;13.432;2023-10-09T11:28:15;11.05;;;6.32;;
16472;SDS011;8347;52.486;13.432;2023-10-09T11:31:13;8.95;;;6.60;;
16472;SDS011;8347;52.486;13.432;2023-10-09T11:34:01;7.50;;;5.97;;
16472;SDS011;8347;52.486;13.432;2023-10-09T11:36:48;8.20;;;6.78;;
16472;SDS011;8347;52.486;13.432;2023-10-09T11:39:41;9.15;;;7.20;;
16472;SDS011;8347;52.486;13.432;2023-10-09T11:42:37;11.45;;;7.22;;
16472;SDS011;8347;52.486;13.432;2023-10-09T11:45:24;8.98;;;7.53;;
16472;SDS011;8347;52.486;13.432;2023-10-09T11:48:18;8.85;;;7.15;;
16472;SDS011;8347;52.486;13.432;2023-10-09T11:51:19;11.07;;;7.35;;
16472;SDS011;8347;52.486;13.432;2023-10-09T11:54:07;7.70;;;6.68;;
16472;SDS011;8347;52.486;13.432;2023-10-09T11:56:54;8.68;;;7.07;;
16472;SDS011;8347;52.486;13.432;2023-10-09T11:59:41;8.00;;;7.20;;
16472;SDS011;8347;52.486;13.432;2023-10-09T12:02:29;9.32;;;7.85;;
16472;SDS011;8347;52.486;13.432;2023-10-09T12:05:16;10.35;;;7.57;;
16472;SDS011;8347;52.486;13.432;2023-10-09T12:08:04;9.48;;;7.72;;
16472;SDS011;8347;52.486;13.432;2023-10-09T12:10:54;9.70;;;6.85;;
16472;SDS011;8347;52.486;13.432;2023-10-09T12:13:41;8.75;;;6.13;;
16472;SDS011;8347;52.486;13.432;2023-10-09T12:16:28;9.80;;;6.95;;
16472;SDS011;8347;52.486;13.432;2023-10-09T12:19:14;9.95;;;7.80;;
16472;SDS011;8347;52.486;13.432;2023-10-09T12:22:01;8.98;;;6.65;;
16472;SDS011;8347;52.486;13.432;2023-10-09T12:24:49;7.93;;;6.72;;
16472;SDS011;8347;52.486;13.432;2023-10-09T12:27:36;9.75;;;7.35;;
16472;SDS011;8347;52.486;13.432;2023-10-09T12:30:23;9.02;;;7.32;;
16472;SDS011;8347;52.486;13.432;2023-10-09T12:33:13;10.68;;;6.75;;
16472;SDS011;8347;52.486;13.432;2023-10-09T12:36:01;12.40;;;7.65;;
16472;SDS011;8347;52.486;13.432;2023-10-09T12:38:49;10.13;;;8.32;;
16472;SDS011;8347;52.486;13.432;2023-10-09T12:41:38;17.13;;;9.00;;
16472;SDS011;8347;52.486;13.432;2023-10-09T12:44:27;10.32;;;9.23;;
16472;SDS011;8347;52.486;13.432;2023-10-09T12:47:13;11.75;;;8.68;;
16472;SDS011;8347;52.486;13.432;2023-10-09T12:49:59;11.45;;;10.13;;
16472;SDS011;8347;52.486;13.432;2023-10-09T12:52:46;13.63;;;10.40;;
16472;SDS011;8347;52.486;13.432;2023-10-09T12:55:39;10.27;;;8.98;;
16472;SDS011;8347;52.486;13.432;2023-10-09T12:58:30;12.75;;;9.13;;
16472;SDS011;8347;52.486;13.432;2023-10-09T13:01:17;11.00;;;8.70;;
16472;SDS011;8347;52.486;13.432;2023-10-09T13:04:04;12.13;;;9.65;;
16472;SDS011;8347;52.486;13.432;2023-10-09T13:06:57;12.98;;;9.00;;
16472;SDS011;8347;52.486;13.432;2023-10-09T13:09:48;14.93;;;10.07;;
16472;SDS011;8347;52.486;13.432;2023-10-09T13:12:54;13.82;;;9.75;;
16472;SDS011;8347;52.486;13.432;2023-10-09T13:15:43;13.05;;;10.88;;
16472;SDS011;8347;52.486;13.432;2023-10-09T13:18:29;13.43;;;10.13;;
16472;SDS011;8347;52.486;13.432;2023-10-09T13:21:17;13.32;;;10.65;;
16472;SDS011;8347;52.486;13.432;2023-10-09T13:24:04;14.68;;;11.27;;
16472;SDS011;8347;52.486;13.432;2023-10-09T13:26:51;15.15;;;10.77;;
16472;SDS011;8347;52.486;13.432;2023-10-09T13:29:39;16.05;;;10.60;;
16472;SDS011;8347;52.486;13.432;2023-10-09T13:32:25;11.00;;;9.85;;
16472;SDS011;8347;52.486;13.432;2023-10-09T13:35:12;16.20;;;9.65;;
16472;SDS011;8347;52.486;13.432;2023-10-09T13:38:00;12.73;;;9.23;;
16472;SDS011;8347;52.486;13.432;2023-10-09T13:40:47;10.82;;;9.70;;
16472;SDS011;8347;52.486;13.432;2023-10-09T13:43:35;14.98;;;9.98;;
16472;SDS011;8347;52.486;13.432;2023-10-09T13:46:21;10.90;;;8.45;;
16472;SDS011;8347;52.486;13.432;2023-10-09T13:49:08;11.60;;;9.05;;
16472;SDS011;8347;52.486;13.432;2023-10-09T13:52:00;12.00;;;8.68;;
16472;SDS011;8347;52.486;13.432;2023-10-09T13:54:48;14.02;;;9.75;;
16472;SDS011;8347;52.486;13.432;2023-10-09T13:57:39;11.40;;;9.60;;
16472;SDS011;8347;52.486;13.432;2023-10-09T14:00:28;11.68;;;10.18;;
16472;SDS011;8347;52.486;13.432;2023-10-09T14:03:19;11.20;;;9.38;;
16472;SDS011;8347;52.486;13.432;2023-10-09T14:06:09;17.23;;;11.45;;
16472;SDS011;8347;52.486;13.432;2023-10-09T14:09:01;13.25;;;10.48;;
16472;SDS011;8347;52.486;13.432;2023-10-09T14:11:50;10.65;;;9.43;;
16472;SDS011;8347;52.486;13.432;2023-10-09T14:14:38;13.20;;;8.95;;
16472;SDS011;8347;52.486;13.432;2023-10-09T14:17:34;10.68;;;9.00;;
16472;SDS011;8347;52.486;13.432;2023-10-09T14:20:24;11.27;;;9.18;;
16472;SDS011;8347;52.486;13.432;2023-10-09T14:23:17;10.55;;;9.18;;
16472;SDS011;8347;52.486;13.432;2023-10-09T14:26:06;9.57;;;8.25;;
16472;SDS011;8347;52.486;13.432;2023-10-09T14:28:53;13.27;;;10.10;;
16472;SDS011;8347;52.486;13.432;2023-10-09T14:31:43;11.45;;;10.10;;
16472;SDS011;8347;52.486;13.432;2023-10-09T14:34:34;13.10;;;10.02;;
16472;SDS011;8347;52.486;13.432;2023-10-09T14:37:22;15.55;;;9.95;;
16472;SDS011;8347;52.486;13.432;2023-10-09T14:40:09;11.93;;;9.70;;
16472;SDS011;8347;52.486;13.432;2023-10-09T14:42:58;11.50;;;8.95;;
16472;SDS011;8347;52.486;13.432;2023-10-09T14:45:45;13.48;;;8.85;;
16472;SDS011;8347;52.486;13.432;2023-10-09T14:48:35;13.52;;;10.70;;
16472;SDS011;8347;52.486;13.432;2023-10-09T14:51:23;12.48;;;9.70;;
16472;SDS011;8347;52.486;13.432;2023-10-09T14:54:13;13.73;;;9.10;;
16472;SDS011;8347;52.486;13.432;2023-10-09T14:57:04;14.68;;;10.20;;
16472;SDS011;8347;52.486;13.432;2023-10-09T14:59:52;14.98;;;9.82;;
16472;SDS011;8347;52.486;13.432;2023-10-09T15:02:39;10.48;;;8.98;;
16472;SDS011;8347;52.486;13.432;2023-10-09T15:05:26;10.55;;;8.77;;
16472;SDS011;8347;52.486;13.432;2023-10-09T15:08:12;12.63;;;9.88;;
16472;SDS011;8347;52.486;13.432;2023-10-09T15:10:59;15.48;;;11.52;;
16472;SDS011;8347;52.486;13.432;2023-10-09T15:13:46;13.30;;;10.40;;
16472;SDS011;8347;52.486;13.432;2023-10-09T15:16:32;14.07;;;10.23;;
16472;SDS011;8347;52.486;13.432;2023-10-09T15:19:19;14.02;;;11.27;;
16472;SDS011;8347;52.486;13.432;2023-10-09T15:22:15;14.00;;;10.38;;
16472;SDS011;8347;52.486;13.432;2023-10-09T15:25:01;14.80;;;9.88;;
16472;SDS011;8347;52.486;13.432;2023-10-09T15:27:47;18.30;;;12.23;;
16472;SDS011;8347;52.486;13.432;2023-10-09T15:30:35;10.90;;;9.77;;
16472;SDS011;8347;52.486;13.432;2023-10-09T15:33:26;13.77;;;10.38;;
16472;SDS011;8347;52.486;13.432;2023-10-09T15:36:16;11.85;;;9.75;;
16472;SDS011;8347;52.486;13.432;2023-10-09T15:39:05;15.00;;;10.57;;
16472;SDS011;8347;52.486;13.432;2023-10-09T15:41:57;12.98;;;10.32;;
16472;SDS011;8347;52.486;13.432;2023-10-09T15:44:43;13.18;;;10.32;;
16472;SDS011;8347;52.486;13.432;2023-10-09T15:47:33;13.00;;;10.27;;
16472;SDS011;8347;52.486;13.432;2023-10-09T15:50:22;14.18;;;9.60;;
16472;SDS011;8347;52.486;13.432;2023-10-09T15:53:09;15.15;;;10.27;;
16472;SDS011;8347;52.486;13.432;2023-10-09T15:55:56;11.93;;;9.93;;
16472;SDS011;8347;52.486;13.432;2023-10-09T15:58:43;12.50;;;10.05;;
16472;SDS011;8347;52.486;13.432;2023-10-09T16:01:30;11.85;;;9.60;;
16472;SDS011;8347;52.486;13.432;2023-10-09T16:04:17;12.05;;;9.68;;
16472;SDS011;8347;52.486;13.432;2023-10-09T16:07:04;11.07;;;9.02;;
16472;SDS011;8347;52.486;13.432;2023-10-09T16:09:55;13.63;;;9.52;;
16472;SDS011;8347;52.486;13.432;2023-10-09T16:12:43;12.88;;;8.95;;
16472;SDS011;8347;52.486;13.432;2023-10-09T16:15:32;12.20;;;10.30;;
16472;SDS011;8347;52.486;13.432;2023-10-09T16:18:18;12.48;;;7.93;;
16472;SDS011;8347;52.486;13.432;2023-10-09T16:21:06;11.95;;;8.10;;
16472;SDS011;8347;52.486;13.432;2023-10-09T16:23:54;13.63;;;8.77;;
16472;SDS011;8347;52.486;13.432;2023-10-09T16:26:40;9.95;;;8.80;;
16472;SDS011;8347;52.486;13.432;2023-10-09T16:29:31;15.80;;;9.70;;
16472;SDS011;8347;52.486;13.432;2023-10-09T16:32:18;13.88;;;9.70;;
16472;SDS011;8347;52.486;13.432;2023-10-09T16:35:07;14.00;;;9.98;;
16472;SDS011;8347;52.486;13.432;2023-10-09T16:37:55;13.95;;;9.75;;
16472;SDS011;8347;52.486;13.432;2023-10-09T16:40:43;14.85;;;10.48;;
16472;SDS011;8347;52.486;13.432;2023-10-09T16:43:32;13.30;;;10.20;;
16472;SDS011;8347;52.486;13.432;2023-10-09T16:46:19;15.43;;;10.65;;
16472;SDS011;8347;52.486;13.432;2023-10-09T16:49:08;16.00;;;11.52;;
16472;SDS011;8347;52.486;13.432;2023-10-09T16:51:57;13.98;;;10.95;;
16472;SDS011;8347;52.486;13.432;2023-10-09T16:54:44;15.75;;;11.65;;
16472;SDS011;8347;52.486;13.432;2023-10-09T16:57:31;12.63;;;10.05;;
16472;SDS011;8347;52.486;13.432;2023-10-09T17:00:18;13.93;;;9.43;;
16472;SDS011;8347;52.486;13.432;2023-10-09T17:03:14;13.40;;;10.05;;
16472;SDS011;8347;52.486;13.432;2023-10-09T17:06:00;10.75;;;9.43;;
16472;SDS011;8347;52.486;13.432;2023-10-09T17:08:49;11.93;;;9.90;;
16472;SDS011;8347;52.486;13.432;2023-10-09T17:11:41;13.45;;;10.27;;
16472;SDS011;8347;52.486;13.432;2023-10-09T17:14:27;12.10;;;10.07;;
16472;SDS011;8347;52.486;13.432;2023-10-09T17:17:14;15.27;;;10.60;;